createdAt,value
2019-05-25T00:00:20.155Z,14.76
2019-05-25T00:02:50.207Z,14.72
2019-05-25T00:05:20.212Z,14.70
2019-05-25T00:07:50.255Z,14.68
2019-05-25T00:10:20.262Z,14.67
2019-05-25T00:12:50.301Z,14.66
2019-05-25T00:15:20.308Z,14.64
2019-05-25T00:17:50.280Z,14.65
2019-05-25T00:20:20.299Z,14.63
2019-05-25T00:22:50.274Z,14.59
2019-05-25T00:25:20.324Z,14.59
2019-05-25T00:27:50.429Z,14.58
2019-05-25T00:30:20.805Z,14.56
2019-05-25T00:32:50.879Z,14.53
2019-05-25T00:35:20.993Z,14.52
2019-05-25T00:37:51.069Z,14.50
2019-05-25T00:40:21.110Z,14.43
2019-05-25T00:42:51.069Z,14.40
2019-05-25T00:45:21.040Z,14.37
2019-05-25T00:47:51.047Z,14.32
2019-05-25T00:50:21.021Z,14.26
2019-05-25T00:52:51.025Z,14.15
2019-05-25T00:55:20.999Z,14.07
2019-05-25T00:57:51.075Z,14.04
2019-05-25T01:00:21.442Z,13.98
2019-05-25T01:02:51.489Z,13.98
2019-05-25T01:05:21.470Z,13.98
2019-05-25T01:07:51.449Z,13.96
2019-05-25T01:10:21.462Z,13.91
2019-05-25T01:12:51.437Z,13.86
2019-05-25T01:15:21.641Z,13.84
2019-05-25T01:17:52.789Z,13.81
2019-05-25T01:20:23.700Z,13.78
2019-05-25T01:22:53.682Z,13.73
2019-05-25T01:25:23.653Z,13.70
2019-05-25T01:27:53.658Z,13.67
2019-05-25T01:30:24.689Z,13.66
2019-05-25T01:32:54.687Z,13.62
2019-05-25T01:35:24.784Z,13.59
2019-05-25T01:37:54.738Z,13.58
2019-05-25T01:40:24.745Z,13.59
2019-05-25T01:42:54.661Z,13.55
2019-05-25T01:45:25.649Z,13.46
2019-05-25T01:47:55.623Z,13.33
2019-05-25T01:50:25.569Z,13.24
2019-05-25T01:52:55.526Z,13.06
2019-05-25T01:55:25.534Z,12.88
2019-05-25T01:57:55.511Z,12.73
2019-05-25T02:00:25.715Z,12.63
2019-05-25T02:02:55.621Z,12.56
2019-05-25T02:05:25.704Z,12.52
2019-05-25T02:07:55.677Z,12.52
2019-05-25T02:10:25.542Z,12.52
2019-05-25T02:12:55.584Z,12.48
2019-05-25T02:15:25.589Z,12.42
2019-05-25T02:17:55.829Z,12.37
2019-05-25T02:20:25.842Z,12.32
2019-05-25T02:22:55.987Z,12.26
2019-05-25T02:25:25.999Z,12.21
2019-05-25T02:27:56.012Z,12.23
2019-05-25T02:30:27.598Z,12.21
2019-05-25T02:32:57.691Z,12.20
2019-05-25T02:35:28.470Z,12.21
2019-05-25T02:37:58.578Z,12.22
2019-05-25T02:40:28.812Z,12.24
2019-05-25T02:42:59.543Z,12.34
2019-05-25T02:45:29.518Z,12.41
2019-05-25T02:47:59.527Z,12.44
2019-05-25T02:50:29.497Z,12.50
2019-05-25T02:52:59.506Z,12.56
2019-05-25T02:55:34.227Z,12.57
2019-05-25T02:58:01.184Z,12.55
2019-05-25T03:00:35.411Z,12.57
2019-05-25T03:03:04.971Z,12.56
2019-05-25T03:05:34.636Z,12.60
2019-05-25T03:08:05.494Z,12.61
2019-05-25T03:10:36.574Z,12.60
2019-05-25T03:13:06.551Z,12.64
2019-05-25T03:15:36.553Z,12.67
2019-05-25T03:18:06.564Z,12.69
2019-05-25T03:20:36.535Z,12.72
2019-05-25T03:23:06.548Z,12.72
2019-05-25T03:25:49.023Z,12.74
2019-05-25T03:28:08.295Z,12.76
2019-05-25T03:30:38.793Z,12.78
2019-05-25T03:33:08.711Z,12.79
2019-05-25T03:35:38.688Z,12.84
2019-05-25T03:38:08.699Z,12.83
2019-05-25T03:40:38.668Z,12.87
2019-05-25T03:43:08.674Z,12.88
2019-05-25T03:45:38.646Z,12.89
2019-05-25T03:48:08.655Z,12.92
2019-05-25T03:50:39.798Z,12.94
2019-05-25T03:53:09.804Z,12.95
2019-05-25T03:55:39.775Z,12.97
2019-05-25T03:58:09.674Z,12.97
2019-05-25T04:00:40.950Z,12.96
2019-05-25T04:03:10.964Z,12.96
2019-05-25T04:05:41.006Z,12.97
2019-05-25T04:08:11.019Z,12.99
2019-05-25T04:10:40.993Z,13.00
2019-05-25T04:13:11.066Z,13.03
2019-05-25T04:15:40.974Z,13.04
2019-05-25T04:18:11.047Z,13.05
2019-05-25T04:20:40.945Z,13.08
2019-05-25T04:23:12.138Z,13.14
2019-05-25T04:25:42.132Z,13.24
2019-05-25T04:28:12.206Z,13.30
2019-05-25T04:30:42.182Z,13.37
2019-05-25T04:33:12.193Z,13.43
2019-05-25T04:35:42.164Z,13.49
2019-05-25T04:38:12.173Z,13.55
2019-05-25T04:40:42.109Z,13.61
2019-05-25T04:43:13.083Z,13.69
2019-05-25T04:45:43.091Z,13.77
2019-05-25T04:48:13.067Z,13.85
2019-05-25T04:50:43.086Z,13.97
2019-05-25T04:53:14.031Z,14.05
2019-05-25T04:55:44.039Z,14.14
2019-05-25T04:58:14.078Z,14.24
2019-05-25T05:00:44.097Z,14.35
2019-05-25T05:03:14.069Z,14.45
2019-05-25T05:05:44.080Z,14.55
2019-05-25T05:08:14.053Z,14.67
2019-05-25T05:10:44.358Z,14.83
2019-05-25T05:13:14.371Z,14.96
2019-05-25T05:15:44.270Z,15.09
2019-05-25T05:18:14.315Z,15.24
2019-05-25T05:20:44.336Z,15.37
2019-05-25T05:23:14.249Z,15.51
2019-05-25T05:25:44.264Z,15.61
2019-05-25T05:28:14.240Z,15.78
2019-05-25T05:30:44.274Z,15.96
2019-05-25T05:33:14.274Z,16.12
2019-05-25T05:35:46.182Z,16.28
2019-05-25T05:38:17.261Z,16.45
2019-05-25T05:40:48.270Z,16.59
2019-05-25T05:43:20.617Z,16.70
2019-05-25T05:45:54.034Z,16.76
2019-05-25T05:48:26.298Z,16.91
2019-05-25T05:50:59.232Z,17.03
2019-05-25T05:53:29.210Z,17.18
2019-05-25T05:55:59.220Z,17.30
2019-05-25T05:58:29.237Z,17.44
2019-05-25T06:00:59.215Z,17.58
2019-05-25T06:03:30.193Z,17.68
2019-05-25T06:06:00.180Z,17.77
2019-05-25T06:08:30.198Z,17.92
2019-05-25T06:11:01.183Z,18.10
2019-05-25T06:13:31.208Z,18.25
2019-05-25T06:16:01.182Z,18.31
2019-05-25T06:18:31.204Z,18.44
2019-05-25T06:21:01.175Z,18.55
2019-05-25T06:23:31.114Z,18.61
2019-05-25T06:26:01.087Z,18.66
2019-05-25T06:28:32.176Z,18.62
2019-05-25T06:31:02.196Z,18.77
2019-05-25T06:33:32.243Z,18.85
2019-05-25T06:36:02.333Z,19.01
2019-05-25T06:38:32.320Z,19.12
2019-05-25T06:41:02.320Z,19.15
2019-05-25T06:43:32.221Z,19.21
2019-05-25T06:46:02.309Z,19.29
2019-05-25T06:48:32.296Z,19.32
2019-05-25T06:51:02.383Z,19.28
2019-05-25T06:53:32.367Z,19.41
2019-05-25T06:56:02.385Z,19.58
2019-05-25T06:58:32.434Z,19.69
2019-05-25T07:01:03.615Z,19.74
2019-05-25T07:03:33.706Z,19.79
2019-05-25T07:06:03.754Z,19.76
2019-05-25T07:08:34.817Z,19.83
2019-05-25T07:11:04.875Z,19.94
2019-05-25T07:13:34.812Z,20.03
2019-05-25T07:16:04.825Z,20.06
2019-05-25T07:18:35.712Z,20.14
2019-05-25T07:21:06.401Z,20.22
2019-05-25T07:23:36.381Z,20.27
2019-05-25T07:26:06.396Z,20.37
2019-05-25T07:28:36.364Z,20.37
2019-05-25T07:31:06.382Z,20.44
2019-05-25T07:33:36.374Z,20.54
2019-05-25T07:36:07.696Z,20.58
2019-05-25T07:38:38.049Z,20.63
2019-05-25T07:41:08.060Z,20.69
2019-05-25T07:43:38.034Z,20.75
2019-05-25T07:46:08.080Z,20.74
2019-05-25T07:48:38.119Z,20.77
2019-05-25T07:51:08.197Z,20.85
2019-05-25T07:53:38.189Z,20.87
2019-05-25T07:56:08.251Z,20.89
2019-05-25T07:58:38.225Z,20.97
2019-05-25T08:01:08.234Z,21.04
2019-05-25T08:03:39.859Z,21.13
2019-05-25T08:06:10.072Z,21.16
2019-05-25T08:08:40.048Z,21.24
2019-05-25T08:11:11.065Z,21.48
2019-05-25T08:13:41.034Z,21.66
2019-05-25T08:16:11.037Z,21.74
2019-05-25T08:18:41.035Z,21.79
2019-05-25T08:21:11.041Z,21.88
2019-05-25T08:23:41.094Z,22.02
2019-05-25T08:26:11.115Z,22.19
2019-05-25T08:28:41.098Z,22.35
2019-05-25T08:31:11.020Z,22.34
2019-05-25T08:33:41.012Z,22.46
2019-05-25T08:36:11.024Z,22.55
2019-05-25T08:38:41.090Z,22.74
2019-05-25T08:41:11.120Z,22.83
2019-05-25T08:43:41.015Z,22.93
2019-05-25T08:46:11.023Z,23.00
2019-05-25T08:48:41.032Z,23.01
2019-05-25T08:51:11.042Z,22.82
2019-05-25T08:53:42.386Z,22.91
2019-05-25T08:56:13.002Z,22.96
2019-05-25T08:58:49.027Z,23.19
2019-05-25T09:01:16.975Z,23.26
2019-05-25T09:03:47.007Z,23.32
2019-05-25T09:06:17.000Z,23.45
2019-05-25T09:08:46.986Z,23.38
2019-05-25T09:11:16.995Z,23.32
2019-05-25T09:13:47.039Z,23.37
2019-05-25T09:16:17.068Z,23.46
2019-05-25T09:18:46.968Z,23.54
2019-05-25T09:21:17.048Z,23.69
2019-05-25T09:23:48.846Z,23.66
2019-05-25T09:26:18.799Z,23.80
2019-05-25T09:29:03.580Z,23.89
2019-05-25T09:31:20.624Z,23.95
2019-05-25T09:33:51.669Z,23.90
2019-05-25T09:36:21.681Z,23.91
2019-05-25T09:38:51.704Z,24.02
2019-05-25T09:41:21.646Z,24.02
2019-05-25T09:43:51.642Z,24.06
2019-05-25T09:46:21.707Z,24.12
2019-05-25T09:48:51.763Z,24.07
2019-05-25T09:51:21.826Z,23.94
2019-05-25T09:53:51.812Z,23.70
2019-05-25T09:56:21.846Z,23.60
2019-05-25T09:58:51.824Z,23.60
2019-05-25T10:01:21.923Z,23.56
2019-05-25T10:03:51.822Z,23.52
2019-05-25T10:06:21.937Z,23.56
2019-05-25T10:08:51.948Z,23.63
2019-05-25T10:11:21.931Z,23.69
2019-05-25T10:13:51.961Z,23.74
2019-05-25T10:16:21.921Z,23.74
2019-05-25T10:18:51.899Z,23.62
2019-05-25T10:21:21.911Z,23.49
2019-05-25T10:23:51.889Z,23.46
2019-05-25T10:26:23.106Z,23.34
2019-05-25T10:28:53.570Z,23.44
2019-05-25T10:31:23.582Z,23.45
2019-05-25T10:33:53.572Z,23.52
2019-05-25T10:36:23.581Z,23.56
2019-05-25T10:38:53.554Z,23.63
2019-05-25T10:41:23.558Z,23.70
2019-05-25T10:43:53.574Z,23.69
2019-05-25T10:46:23.482Z,23.63
2019-05-25T10:48:53.562Z,23.61
2019-05-25T10:51:23.537Z,23.57
2019-05-25T10:53:54.617Z,23.54
2019-05-25T10:56:24.593Z,23.51
2019-05-25T10:58:54.673Z,23.56
2019-05-25T11:01:24.587Z,23.50
2019-05-25T11:03:54.605Z,23.59
2019-05-25T11:06:24.583Z,23.44
2019-05-25T11:08:54.591Z,23.48
2019-05-25T11:11:24.565Z,23.61
2019-05-25T11:13:54.511Z,23.77
2019-05-25T11:16:24.485Z,23.96
2019-05-25T11:18:54.501Z,24.05
2019-05-25T11:21:24.469Z,24.11
2019-05-25T11:23:54.483Z,24.16
2019-05-25T11:26:24.474Z,24.18
2019-05-25T11:28:54.506Z,24.26
2019-05-25T11:31:24.489Z,24.24
2019-05-25T11:33:54.595Z,24.24
2019-05-25T11:36:24.639Z,24.25
2019-05-25T11:38:54.650Z,24.24
2019-05-25T11:41:24.637Z,24.15
2019-05-25T11:43:54.648Z,24.03
2019-05-25T11:46:24.625Z,24.03
2019-05-25T11:48:54.675Z,24.11
2019-05-25T11:51:24.544Z,24.07
2019-05-25T11:53:54.563Z,24.14
2019-05-25T11:56:24.539Z,24.17
2019-05-25T11:58:54.548Z,24.15
2019-05-25T12:01:24.540Z,24.22
2019-05-25T12:03:54.483Z,24.14
2019-05-25T12:06:24.529Z,24.25
2019-05-25T12:08:54.611Z,24.37
2019-05-25T12:11:24.588Z,24.40
2019-05-25T12:13:54.598Z,24.51
2019-05-25T12:16:25.024Z,24.45
2019-05-25T12:18:55.130Z,24.13
2019-05-25T12:21:25.103Z,24.08
2019-05-25T12:23:55.184Z,23.83
2019-05-25T12:26:25.160Z,23.77
2019-05-25T12:28:55.172Z,23.77
2019-05-25T12:31:25.166Z,23.88
2019-05-25T12:33:55.181Z,23.89
2019-05-25T12:36:25.221Z,23.88
2019-05-25T12:38:55.268Z,23.85
2019-05-25T12:41:25.355Z,23.70
2019-05-25T12:43:55.629Z,23.52
2019-05-25T12:46:25.618Z,23.54
2019-05-25T12:48:55.663Z,23.55
2019-05-25T12:51:25.673Z,23.69
2019-05-25T12:53:55.570Z,23.67
2019-05-25T12:56:25.582Z,23.79
2019-05-25T12:58:55.553Z,23.78
2019-05-25T13:01:25.571Z,23.79
2019-05-25T13:03:55.552Z,23.68
2019-05-25T13:06:25.565Z,23.62
2019-05-25T13:08:56.114Z,23.64
2019-05-25T13:11:26.330Z,23.53
2019-05-25T13:13:56.240Z,23.47
2019-05-25T13:16:26.793Z,23.43
2019-05-25T13:18:57.580Z,23.39
2019-05-25T13:21:28.104Z,23.36
2019-05-25T13:23:58.093Z,23.34
2019-05-25T13:26:28.445Z,23.27
2019-05-25T13:28:58.729Z,23.27
2019-05-25T13:31:31.433Z,23.26
2019-05-25T13:34:01.575Z,23.25
2019-05-25T13:36:31.661Z,23.20
2019-05-25T13:39:01.710Z,23.19
2019-05-25T13:41:31.989Z,23.15
2019-05-25T13:44:01.980Z,23.09
2019-05-25T13:46:31.995Z,22.96
2019-05-25T13:49:02.001Z,22.97
2019-05-25T13:51:32.040Z,22.96
2019-05-25T13:54:02.049Z,22.91
2019-05-25T13:56:32.041Z,22.93
2019-05-25T13:59:03.222Z,22.90
2019-05-25T14:01:33.312Z,22.84
2019-05-25T14:04:03.344Z,22.86
2019-05-25T14:06:33.394Z,22.78
2019-05-25T14:09:04.684Z,22.77
2019-05-25T14:11:34.724Z,22.73
2019-05-25T14:14:05.086Z,22.71
2019-05-25T14:16:35.065Z,22.70
2019-05-25T14:19:05.347Z,22.67
2019-05-25T14:21:35.349Z,22.62
2019-05-25T14:24:05.333Z,22.64
2019-05-25T14:26:35.343Z,22.58
2019-05-25T14:29:05.389Z,22.60
2019-05-25T14:31:44.894Z,22.55
2019-05-25T14:34:07.070Z,22.59
2019-05-25T14:36:38.248Z,22.54
2019-05-25T14:39:09.224Z,22.57
2019-05-25T14:41:39.160Z,22.57
2019-05-25T14:44:09.131Z,22.59
2019-05-25T14:46:39.073Z,22.58
2019-05-25T14:49:09.111Z,22.58
2019-05-25T14:51:39.040Z,22.55
2019-05-25T14:54:09.102Z,22.60
2019-05-25T14:56:39.081Z,22.64
2019-05-25T14:59:09.435Z,22.55
2019-05-25T15:01:39.641Z,22.53
2019-05-25T15:04:09.652Z,22.48
2019-05-25T15:06:39.672Z,22.22
2019-05-25T15:09:09.678Z,22.11
2019-05-25T15:11:39.569Z,22.04
2019-05-25T15:14:09.544Z,21.99
2019-05-25T15:16:39.708Z,21.97
2019-05-25T15:19:09.759Z,22.00
2019-05-25T15:21:39.920Z,22.06
2019-05-25T15:24:10.069Z,22.10
2019-05-25T15:26:40.061Z,22.11
2019-05-25T15:29:11.533Z,22.13
2019-05-25T15:31:42.065Z,22.11
2019-05-25T15:34:12.039Z,22.09
2019-05-25T15:36:42.153Z,22.05
2019-05-25T15:39:12.140Z,22.01
2019-05-25T15:41:42.221Z,21.96
2019-05-25T15:44:12.275Z,21.91
2019-05-25T15:46:42.360Z,21.84
2019-05-25T15:49:12.412Z,21.76
2019-05-25T15:51:42.493Z,21.77
2019-05-25T15:54:12.498Z,21.70
2019-05-25T15:56:42.593Z,21.68
2019-05-25T15:59:12.571Z,21.64
2019-05-25T16:01:42.503Z,21.56
2019-05-25T16:04:12.477Z,21.50
2019-05-25T16:06:42.515Z,21.47
2019-05-25T16:09:12.557Z,21.41
2019-05-25T16:11:42.633Z,21.30
2019-05-25T16:14:12.646Z,21.26
2019-05-25T16:16:42.694Z,21.12
2019-05-25T16:19:12.810Z,21.07
2019-05-25T16:21:42.789Z,21.05
2019-05-25T16:24:12.904Z,21.00
2019-05-25T16:26:46.313Z,20.95
2019-05-25T16:29:14.581Z,20.89
2019-05-25T16:31:44.550Z,20.80
2019-05-25T16:34:14.563Z,20.78
2019-05-25T16:36:44.461Z,20.73
2019-05-25T16:39:14.484Z,20.70
2019-05-25T16:41:44.606Z,20.64
2019-05-25T16:44:14.629Z,20.63
2019-05-25T16:46:44.606Z,20.56
2019-05-25T16:49:14.625Z,20.44
2019-05-25T16:51:44.590Z,20.39
2019-05-25T16:54:14.593Z,20.39
2019-05-25T16:56:44.675Z,20.36
2019-05-25T16:59:14.682Z,20.36
2019-05-25T17:01:48.449Z,20.30
2019-05-25T17:04:16.384Z,20.26
2019-05-25T17:06:46.381Z,20.25
2019-05-25T17:09:16.406Z,20.22
2019-05-25T17:11:46.403Z,20.09
2019-05-25T17:14:16.312Z,20.12
2019-05-25T17:16:46.317Z,20.13
2019-05-25T17:19:16.302Z,20.08
2019-05-25T17:21:46.324Z,20.07
2019-05-25T17:24:16.318Z,20.03
2019-05-25T17:26:46.841Z,19.95
2019-05-25T17:29:16.815Z,19.91
2019-05-25T17:31:46.871Z,19.81
2019-05-25T17:34:16.811Z,19.68
2019-05-25T17:36:47.044Z,19.48
2019-05-25T17:39:17.337Z,19.47
2019-05-25T17:41:47.338Z,19.46
2019-05-25T17:44:17.416Z,19.43
2019-05-25T17:46:47.391Z,19.41
2019-05-25T17:49:18.594Z,19.36
2019-05-25T17:51:48.626Z,19.31
2019-05-25T17:54:18.870Z,19.26
2019-05-25T17:56:48.802Z,19.18
2019-05-25T17:59:18.814Z,19.05
2019-05-25T18:01:49.190Z,19.01
2019-05-25T18:04:19.327Z,18.96
2019-05-25T18:06:49.297Z,18.96
2019-05-25T18:09:19.332Z,18.87
2019-05-25T18:11:50.578Z,18.80
2019-05-25T18:14:21.267Z,18.71
2019-05-25T18:16:51.917Z,18.70
2019-05-25T18:19:22.120Z,18.73
2019-05-25T18:21:52.168Z,18.72
2019-05-25T18:24:22.270Z,18.64
2019-05-25T18:26:52.247Z,18.57
2019-05-25T18:29:23.917Z,18.49
2019-05-25T18:31:53.979Z,18.43
2019-05-25T18:34:23.982Z,18.34
2019-05-25T18:36:54.042Z,18.26
2019-05-25T18:39:24.259Z,18.21
2019-05-25T18:41:54.698Z,18.19
2019-05-25T18:44:26.111Z,18.17
2019-05-25T18:46:56.158Z,18.14
2019-05-25T18:49:26.238Z,18.15
2019-05-25T18:51:56.226Z,18.15
2019-05-25T18:54:26.650Z,18.18
2019-05-25T18:56:56.628Z,18.19
2019-05-25T18:59:26.633Z,18.16
2019-05-25T19:01:56.572Z,18.13
2019-05-25T19:04:43.606Z,18.14
2019-05-25T19:06:58.229Z,18.08
2019-05-25T19:09:28.198Z,18.04
2019-05-25T19:11:58.176Z,17.96
2019-05-25T19:14:28.944Z,18.01
2019-05-25T19:16:58.868Z,17.99
2019-05-25T19:19:28.892Z,17.97
2019-05-25T19:21:58.963Z,17.97
2019-05-25T19:24:28.989Z,17.94
2019-05-25T19:26:59.495Z,17.88
2019-05-25T19:29:30.398Z,17.84
2019-05-25T19:32:00.590Z,17.73
2019-05-25T19:34:30.573Z,17.67
2019-05-25T19:37:03.414Z,17.64
2019-05-25T19:39:32.852Z,17.67
2019-05-25T19:42:02.993Z,17.68
2019-05-25T19:44:32.972Z,17.60
2019-05-25T19:47:03.124Z,17.61
2019-05-25T19:49:33.601Z,17.56
2019-05-25T19:52:03.626Z,17.59
2019-05-25T19:54:33.719Z,17.61
2019-05-25T19:57:03.708Z,17.60
2019-05-25T19:59:33.741Z,17.62
2019-05-25T20:02:04.200Z,17.60
2019-05-25T20:04:34.819Z,17.56
2019-05-25T20:07:05.623Z,17.61
2019-05-25T20:09:35.635Z,17.55
2019-05-25T20:12:05.615Z,17.55
2019-05-25T20:14:35.639Z,17.60
2019-05-25T20:17:06.583Z,17.58
2019-05-25T20:19:36.664Z,17.57
2019-05-25T20:22:09.141Z,17.53
2019-05-25T20:24:38.435Z,17.44
2019-05-25T20:27:08.357Z,17.42
2019-05-25T20:29:38.368Z,17.42
2019-05-25T20:32:08.345Z,17.41
2019-05-25T20:34:38.924Z,17.37
2019-05-25T20:37:09.075Z,17.35
2019-05-25T20:39:39.144Z,17.35
2019-05-25T20:42:09.050Z,17.34
2019-05-25T20:44:39.516Z,17.29
2019-05-25T20:47:09.547Z,17.28
2019-05-25T20:49:39.557Z,17.26
2019-05-25T20:52:09.567Z,17.21
2019-05-25T20:54:39.557Z,17.16
2019-05-25T20:57:09.650Z,17.11
2019-05-25T20:59:39.682Z,17.06
2019-05-25T21:02:09.717Z,17.04
2019-05-25T21:04:39.754Z,17.03
2019-05-25T21:07:09.848Z,17.01
2019-05-25T21:09:39.835Z,16.97
2019-05-25T21:12:09.859Z,16.91
2019-05-25T21:14:39.790Z,16.82
2019-05-25T21:17:09.807Z,16.83
2019-05-25T21:19:39.862Z,16.80
2019-05-25T21:22:09.951Z,16.79
2019-05-25T21:24:40.008Z,16.77
2019-05-25T21:27:09.997Z,16.75
2019-05-25T21:29:40.049Z,16.72
2019-05-25T21:32:10.046Z,16.67
2019-05-25T21:34:40.520Z,16.64
2019-05-25T21:37:10.537Z,16.61
2019-05-25T21:39:41.234Z,16.56
2019-05-25T21:42:11.148Z,16.58
2019-05-25T21:44:41.392Z,16.58
2019-05-25T21:47:11.376Z,16.59
2019-05-25T21:49:41.796Z,16.55
2019-05-25T21:52:12.390Z,16.57
2019-05-25T21:54:42.372Z,16.54
2019-05-25T21:57:12.365Z,16.53
2019-05-25T21:59:42.443Z,16.51
2019-05-25T22:02:12.462Z,16.48
2019-05-25T22:04:42.557Z,16.46
2019-05-25T22:07:12.543Z,16.45
2019-05-25T22:09:42.587Z,16.45
2019-05-25T22:12:12.578Z,16.43
2019-05-25T22:14:43.106Z,16.39
2019-05-25T22:17:13.059Z,16.40
2019-05-25T22:19:43.001Z,16.41
2019-05-25T22:22:12.986Z,16.46
2019-05-25T22:24:43.007Z,16.49
2019-05-25T22:27:12.959Z,16.49
2019-05-25T22:29:42.946Z,16.51
2019-05-25T22:32:13.950Z,16.48
2019-05-25T22:34:43.933Z,16.53
2019-05-25T22:37:13.896Z,16.54
2019-05-25T22:39:43.881Z,16.54
2019-05-25T22:42:13.899Z,16.51
2019-05-25T22:44:44.503Z,16.48
2019-05-25T22:47:14.937Z,16.55
2019-05-25T22:49:45.280Z,16.48
2019-05-25T22:52:15.797Z,16.48
2019-05-25T22:54:45.818Z,16.46
2019-05-25T22:57:15.770Z,16.44
2019-05-25T22:59:45.757Z,16.39
2019-05-25T23:02:15.779Z,16.41
2019-05-25T23:04:45.715Z,16.32
2019-05-25T23:07:15.878Z,16.30
2019-05-25T23:09:45.939Z,16.29
2019-05-25T23:12:15.958Z,16.24
2019-05-25T23:14:45.938Z,16.24
2019-05-25T23:17:15.962Z,16.26
2019-05-25T23:19:45.950Z,16.26
2019-05-25T23:22:16.042Z,16.24
2019-05-25T23:24:45.995Z,16.21
2019-05-25T23:27:16.344Z,16.06
2019-05-25T23:29:46.678Z,16.12
2019-05-25T23:32:16.757Z,16.15
2019-05-25T23:34:46.745Z,16.15
2019-05-25T23:37:16.836Z,16.04
2019-05-25T23:39:46.843Z,15.97
2019-05-25T23:42:16.858Z,15.99
2019-05-25T23:44:46.865Z,15.98
2019-05-25T23:47:16.888Z,15.93
2019-05-25T23:49:46.887Z,15.90
2019-05-25T23:52:16.874Z,15.91
2019-05-25T23:54:46.964Z,15.89
2019-05-25T23:57:16.950Z,15.87
2019-05-25T23:59:48.135Z,15.88
